Time;durP1;ratioP1;P1;durP2;ratioP2;P2;SDS_P1;SDS_P2;PMS_P1;PMS_P2;Temp;Humidity;BMP_temperature;BMP_pressure;BME280_temperature;BME280_humidity;BME280_pressure;Samples;Min_cycle;Max_cycle;Signal;HPM_P1;HPM_P2
2023/01/21 00:00:27;;;;;;;;;;;;;;;6.05;56.40;98468.41;4482389;32;34577;-94
2023/01/21 00:02:54;;;;;;;;;;;;;;;5.80;56.93;98474.75;4482696;32;33580;-93
2023/01/21 00:05:21;;;;;;;;;;;;;;;5.21;58.64;98471.75;4482475;32;34216;-94
2023/01/21 00:07:48;;;;;;;;;;;;;;;6.03;56.34;98465.81;4482452;32;34382;-95
2023/01/21 00:10:17;;;;;;;;;;;;;;;4.77;59.56;98463.84;4482263;32;34625;-90
2023/01/21 00:12:44;;;;;;;;;;;;;;;5.24;58.53;98464.97;4482372;32;34286;-95
2023/01/21 00:15:12;;;;;;;;;;;;;;;5.11;58.55;98475.78;4483380;32;35095;-93
2023/01/21 00:17:41;;;;;;;;;;;;;;;5.17;58.44;98475.09;4484486;32;35024;-93
2023/01/21 00:20:13;;;;;;;;;;;;;;;4.18;61.59;98484.59;4484157;32;34732;-94
2023/01/21 00:22:42;;;;;;;;;;;;;;;4.66;60.88;98497.00;4485001;32;33776;-95
2023/01/21 00:25:09;;;;;;;;;;;;;;;5.41;58.08;98487.59;4485312;32;34808;-94
2023/01/21 00:27:36;;;;;;;;;;;;;;;5.91;57.26;98495.53;4484901;32;34331;-96
2023/01/21 00:30:04;;;;;;;;;;;;;;;5.81;56.65;98494.47;4485474;32;34472;-88
2023/01/21 00:32:31;;;;;;;;;;;;;;;6.12;55.60;98496.00;4484990;32;33499;-94
2023/01/21 00:34:58;;;;;;;;;;;;;;;6.15;55.98;98496.06;4479926;32;34329;-94
2023/01/21 00:37:25;;;;;;;;;;;;;;;5.30;57.97;98495.97;4474216;32;34591;-90
2023/01/21 00:39:53;;;;;;;;;;;;;;;6.03;56.00;98490.69;4484588;32;34436;-92
2023/01/21 00:42:20;;;;;;;;;;;;;;;4.71;59.34;98490.25;4483644;32;34102;-94
2023/01/21 00:44:47;;;;;;;;;;;;;;;5.72;57.36;98487.47;4484634;32;34763;-94
2023/01/21 00:47:14;;;;;;;;;;;;;;;5.39;57.58;98481.59;4484678;32;34074;-94
2023/01/21 00:49:41;;;;;;;;;;;;;;;5.26;58.48;98486.41;4470409;32;35310;-89
2023/01/21 00:52:09;;;;;;;;;;;;;;;6.11;56.18;98481.41;4456935;32;867362;-94
2023/01/21 00:54:36;;;;;;;;;;;;;;;5.26;58.03;98483.84;4484587;32;34164;-96
2023/01/21 00:57:05;;;;;;;;;;;;;;;4.53;60.66;98482.94;4484280;31;34994;-93
2023/01/21 00:59:33;;;;;;;;;;;;;;;4.82;59.85;98475.13;4484875;32;34134;-95
2023/01/21 01:02:00;;;;;;;;;;;;;;;5.20;58.79;98476.03;4484941;32;33726;-94
2023/01/21 01:04:28;;;;;;;;;;;;;;;3.95;62.48;98485.69;4484516;32;34645;-95
2023/01/21 01:06:56;;;;;;;;;;;;;;;5.16;58.49;98474.22;4484989;32;35520;-94
2023/01/21 01:09:23;;;;;;;;;;;;;;;4.04;62.42;98488.47;4484559;32;34408;-93
2023/01/21 01:11:51;;;;;;;;;;;;;;;4.84;60.56;98492.28;4483480;32;33489;-95
2023/01/21 01:14:18;;;;;;;;;;;;;;;4.64;61.06;98494.38;4484690;32;35039;-95
2023/01/21 01:16:45;;;;;;;;;;;;;;;5.48;58.28;98494.63;4484547;32;34505;-94
2023/01/21 01:19:13;;;;;;;;;;;;;;;5.09;59.21;98503.16;4484326;32;34599;-94
2023/01/21 01:21:40;;;;;;;;;;;;;;;5.88;57.08;98504.06;4483990;32;33668;-94
2023/01/21 01:24:07;;;;;;;;;;;;;;;5.99;56.48;98496.59;4484354;32;34074;-94
2023/01/21 01:26:35;;;;;;;;;;;;;;;5.94;56.85;98493.91;4483276;32;35184;-93
2023/01/21 01:29:03;;;;;;;;;;;;;;;5.59;57.94;98500.88;4483582;32;35067;-94
2023/01/21 01:31:30;;;;;;;;;;;;;;;5.42;57.91;98503.09;4483994;32;34330;-94
2023/01/21 01:33:57;;;;;;;;;;;;;;;5.66;57.58;98491.59;4483834;32;34284;-92
2023/01/21 01:36:24;;;;;;;;;;;;;;;5.75;57.63;98492.63;4484044;32;34412;-93
2023/01/21 01:38:52;;;;;;;;;;;;;;;5.28;59.14;98494.19;4483821;32;34316;-92
2023/01/21 01:41:24;;;;;;;;;;;;;;;6.21;56.37;98483.31;4484410;32;33045;-94
2023/01/21 01:43:51;;;;;;;;;;;;;;;5.58;58.21;98494.00;4469932;32;34224;-94
2023/01/21 01:46:19;;;;;;;;;;;;;;;5.18;59.08;98484.50;4481459;32;34515;-90
2023/01/21 01:48:48;;;;;;;;;;;;;;;6.49;55.30;98487.25;4467750;32;34396;-95
2023/01/21 01:51:16;;;;;;;;;;;;;;;5.55;57.76;98491.34;4466555;32;33825;-94
2023/01/21 01:53:43;;;;;;;;;;;;;;;5.76;56.92;98488.38;4477335;32;34424;-93
2023/01/21 01:56:11;;;;;;;;;;;;;;;5.49;58.14;98484.41;4482957;32;34054;-93
2023/01/21 01:58:38;;;;;;;;;;;;;;;5.21;58.50;98482.88;4469189;32;35279;-92
2023/01/21 02:01:05;;;;;;;;;;;;;;;5.62;58.02;98480.38;4469251;32;33735;-93
2023/01/21 02:03:49;;;;;;;;;;;;;;;5.17;59.11;98482.78;4483810;32;34080;-93
2023/01/21 02:06:17;;;;;;;;;;;;;;;5.37;58.38;98479.81;4471601;32;34476;-94
2023/01/21 02:08:47;;;;;;;;;;;;;;;5.45;58.59;98484.25;4483215;32;33845;-94
2023/01/21 02:11:15;;;;;;;;;;;;;;;6.05;57.02;98471.84;4469021;32;34413;-94
2023/01/21 02:13:45;;;;;;;;;;;;;;;6.37;56.24;98471.59;4483757;32;33880;-94
2023/01/21 02:16:36;;;;;;;;;;;;;;;6.11;56.77;98471.09;4483565;32;34057;-93
2023/01/21 02:19:22;;;;;;;;;;;;;;;6.28;56.12;98468.84;4469503;32;34359;-93
2023/01/21 02:22:12;;;;;;;;;;;;;;;5.68;57.52;98474.47;4483236;32;32902;-92
2023/01/21 02:24:39;;;;;;;;;;;;;;;6.15;56.21;98469.47;4453936;32;34187;-91
2023/01/21 02:27:16;;;;;;;;;;;;;;;5.61;58.28;98470.94;4483921;32;34282;-92
2023/01/21 02:29:52;;;;;;;;;;;;;;;6.66;55.02;98478.94;4483330;32;35681;-94
2023/01/21 02:32:22;;;;;;;;;;;;;;;5.64;57.81;98478.69;4483880;32;33465;-91
2023/01/21 02:34:49;;;;;;;;;;;;;;;5.21;58.90;98476.87;4483218;32;34184;-92
2023/01/21 02:37:29;;;;;;;;;;;;;;;6.16;56.21;98474.63;4483282;32;34420;-92
2023/01/21 02:39:59;;;;;;;;;;;;;;;5.48;58.47;98492.91;4468393;32;33852;-93
2023/01/21 02:42:31;;;;;;;;;;;;;;;6.18;56.35;98483.25;4483942;32;34167;-93
2023/01/21 02:44:59;;;;;;;;;;;;;;;6.18;56.48;98480.69;4469134;32;34931;-89
2023/01/21 02:47:36;;;;;;;;;;;;;;;5.04;59.27;98490.22;4483293;32;35300;-93
2023/01/21 02:50:20;;;;;;;;;;;;;;;4.81;60.32;98484.53;4465644;32;34535;-94
2023/01/21 02:52:57;;;;;;;;;;;;;;;4.82;60.54;98481.12;4465748;32;33539;-94
2023/01/21 02:55:27;;;;;;;;;;;;;;;6.02;57.17;98473.50;4473860;32;34891;-92
2023/01/21 02:58:01;;;;;;;;;;;;;;;6.17;56.32;98462.63;4463061;32;33998;-94
2023/01/21 03:00:32;;;;;;;;;;;;;;;6.05;56.74;98468.41;4452887;32;34626;-93
2023/01/21 03:03:18;;;;;;;;;;;;;;;5.27;59.08;98467.63;4473157;32;33543;-94
2023/01/21 03:06:04;;;;;;;;;;;;;;;5.92;57.47;98459.59;4479302;32;35074;-93
2023/01/21 03:08:33;;;;;;;;;;;;;;;4.34;61.81;98463.66;4479848;32;33940;-93
2023/01/21 03:11:01;;;;;;;;;;;;;;;5.99;57.21;98458.00;4463124;32;35130;-91
2023/01/21 03:19:05;;;;;;;;;;;;;;;5.37;58.67;98478.97;4462652;32;34534;-93
2023/01/21 03:21:33;;;;;;;;;;;;;;;5.88;56.94;98467.19;4474644;32;34589;-89
2023/01/21 03:24:00;;;;;;;;;;;;;;;6.53;55.11;98472.75;4468778;32;34341;-92
2023/01/21 03:26:30;;;;;;;;;;;;;;;5.62;57.46;98480.38;4464712;32;34229;-95
2023/01/21 03:28:58;;;;;;;;;;;;;;;5.25;59.02;98479.56;4483330;32;34289;-94
2023/01/21 03:31:29;;;;;;;;;;;;;;;5.14;59.17;98478.44;4469483;32;35031;-93
2023/01/21 03:34:00;;;;;;;;;;;;;;;6.04;57.00;98480.41;4481825;32;33774;-95
2023/01/21 03:36:30;;;;;;;;;;;;;;;5.82;56.90;98473.94;4469177;32;34214;-95
2023/01/21 03:39:01;;;;;;;;;;;;;;;6.22;56.22;98485.06;4483110;32;34120;-94
2023/01/21 03:41:32;;;;;;;;;;;;;;;6.23;56.18;98494.50;4469406;32;34604;-92
2023/01/21 03:43:59;;;;;;;;;;;;;;;6.77;54.79;98503.19;4468388;32;33682;-93
2023/01/21 03:46:47;;;;;;;;;;;;;;;6.54;55.09;98513.94;4482844;32;34222;-93
2023/01/21 03:49:15;;;;;;;;;;;;;;;6.68;54.09;98509.06;4482399;32;34447;-93
2023/01/21 03:51:44;;;;;;;;;;;;;;;6.95;54.00;98515.53;4468228;32;34600;-93
2023/01/21 03:54:12;;;;;;;;;;;;;;;7.06;53.13;98509.69;4461136;32;33459;-96
2023/01/21 03:56:39;;;;;;;;;;;;;;;7.33;52.69;98508.41;4468954;32;34874;-81
2023/01/21 03:59:07;;;;;;;;;;;;;;;7.36;52.20;98510.16;4469002;32;35151;-88
2023/01/21 04:01:35;;;;;;;;;;;;;;;7.43;52.49;98522.31;4466666;32;33825;-83
2023/01/21 04:04:03;;;;;;;;;;;;;;;7.97;50.96;98517.03;4470677;32;32091;-87
2023/01/21 04:06:30;;;;;;;;;;;;;;;8.61;49.33;98519.50;4468791;32;35069;-92
2023/01/21 04:08:57;;;;;;;;;;;;;;;7.91;50.46;98523.81;4467141;32;34206;-94
2023/01/21 04:11:24;;;;;;;;;;;;;;;7.41;51.91;98539.44;4466334;32;35128;-87
2023/01/21 04:13:51;;;;;;;;;;;;;;;8.31;49.83;98532.94;4477317;32;34547;-93
2023/01/21 04:16:19;;;;;;;;;;;;;;;7.87;50.26;98540.09;4467550;32;34318;-93
2023/01/21 04:18:46;;;;;;;;;;;;;;;8.11;49.89;98535.28;4474215;32;34781;-91
2023/01/21 04:21:14;;;;;;;;;;;;;;;8.13;49.87;98536.16;4473482;32;34606;-92
2023/01/21 04:23:41;;;;;;;;;;;;;;;8.15;49.80;98543.94;4477867;32;33496;-93
2023/01/21 04:26:08;;;;;;;;;;;;;;;7.13;52.21;98551.06;4480782;32;35051;-89
2023/01/21 04:28:36;;;;;;;;;;;;;;;7.88;50.85;98540.16;4467496;32;34192;-94
2023/01/21 04:31:03;;;;;;;;;;;;;;;6.71;53.73;98542.59;4466348;32;34277;-93
2023/01/21 04:33:30;;;;;;;;;;;;;;;7.43;51.93;98542.94;4475011;32;33690;-93
2023/01/21 04:35:58;;;;;;;;;;;;;;;7.58;51.74;98548.31;4477822;32;34876;-92
2023/01/21 04:38:26;;;;;;;;;;;;;;;7.84;50.87;98553.84;4481263;32;35228;-93
2023/01/21 04:40:53;;;;;;;;;;;;;;;7.49;51.71;98563.62;4471642;32;34378;-93
2023/01/21 04:43:21;;;;;;;;;;;;;;;7.33;52.37;98570.28;4472694;32;33613;-94
2023/01/21 04:45:49;;;;;;;;;;;;;;;7.54;51.94;98570.63;4466083;32;34170;-93
2023/01/21 04:48:16;;;;;;;;;;;;;;;7.53;51.61;98573.16;4466027;32;35362;-92
2023/01/21 04:50:44;;;;;;;;;;;;;;;7.09;52.53;98581.06;4468129;32;34141;-93
2023/01/21 04:53:12;;;;;;;;;;;;;;;7.59;51.62;98569.81;4473278;32;34463;-94
2023/01/21 04:55:39;;;;;;;;;;;;;;;7.84;50.90;98574.50;4479015;32;34929;-93
2023/01/21 04:58:06;;;;;;;;;;;;;;;7.59;51.65;98572.41;4468303;32;34388;-93
2023/01/21 05:00:33;;;;;;;;;;;;;;;7.73;51.27;98573.47;4479685;32;34392;-95
2023/01/21 05:03:01;;;;;;;;;;;;;;;7.96;50.79;98577.25;4477665;32;34522;-93
2023/01/21 05:05:28;;;;;;;;;;;;;;;7.96;50.60;98578.97;4472711;32;35084;-88
2023/01/21 05:07:55;;;;;;;;;;;;;;;6.96;52.89;98574.81;4481484;32;34969;-95
2023/01/21 05:10:23;;;;;;;;;;;;;;;6.89;53.13;98582.41;4480020;32;34535;-96
2023/01/21 05:12:50;;;;;;;;;;;;;;;6.94;53.11;98586.81;4469414;32;33575;-94
2023/01/21 05:15:17;;;;;;;;;;;;;;;6.70;53.92;98589.78;4473847;32;35142;-94
2023/01/21 05:17:44;;;;;;;;;;;;;;;7.21;52.81;98585.56;4469635;32;35214;-93
2023/01/21 05:20:11;;;;;;;;;;;;;;;7.67;51.40;98588.84;4468782;32;34239;-94
2023/01/21 05:22:39;;;;;;;;;;;;;;;6.95;53.57;98587.69;4482509;32;33854;-93
2023/01/21 05:25:06;;;;;;;;;;;;;;;7.71;51.45;98596.66;4476433;32;34974;-92
2023/01/21 05:27:34;;;;;;;;;;;;;;;7.60;51.57;98595.62;4477570;32;34733;-95
2023/01/21 05:30:02;;;;;;;;;;;;;;;6.92;53.59;98597.94;4484601;32;34003;-95
2023/01/21 05:32:29;;;;;;;;;;;;;;;7.29;52.57;98602.88;4483976;32;33578;-94
2023/01/21 05:34:56;;;;;;;;;;;;;;;7.87;51.21;98604.63;4484056;32;35030;-94
2023/01/21 05:37:23;;;;;;;;;;;;;;;7.53;51.77;98601.53;4484481;32;34352;-93
2023/01/21 05:39:51;;;;;;;;;;;;;;;7.35;52.21;98601.22;4469565;32;34636;-93
2023/01/21 05:42:18;;;;;;;;;;;;;;;7.68;51.51;98603.47;4483814;32;34545;-94
2023/01/21 05:44:45;;;;;;;;;;;;;;;7.55;51.67;98607.59;4483676;32;33974;-91
2023/01/21 05:47:13;;;;;;;;;;;;;;;6.97;53.09;98617.81;4484014;32;34209;-91
2023/01/21 05:49:40;;;;;;;;;;;;;;;7.10;53.10;98615.44;4469215;32;34721;-92
2023/01/21 05:52:07;;;;;;;;;;;;;;;7.18;53.06;98619.88;4483970;32;33588;-90
2023/01/21 05:54:34;;;;;;;;;;;;;;;7.99;50.92;98612.53;4483796;32;33668;-92
2023/01/21 05:57:02;;;;;;;;;;;;;;;8.19;49.43;98611.13;4483732;32;35417;-90
2023/01/21 05:59:29;;;;;;;;;;;;;;;8.21;49.44;98614.56;4483557;32;34091;-95
2023/01/21 06:01:56;;;;;;;;;;;;;;;7.28;51.93;98619.19;4458999;32;33936;-94
2023/01/21 06:04:29;;;;;;;;;;;;;;;8.13;50.30;98626.50;4476686;32;33998;-93
2023/01/21 06:06:56;;;;;;;;;;;;;;;7.66;51.20;98637.00;4474583;32;35309;-92
2023/01/21 06:09:24;;;;;;;;;;;;;;;7.84;51.08;98641.59;4467651;32;34471;-90
2023/01/21 06:11:51;;;;;;;;;;;;;;;8.60;49.23;98640.91;4468004;32;33512;-93
2023/01/21 06:14:18;;;;;;;;;;;;;;;8.76;47.95;98632.50;4453711;32;33612;-88
2023/01/21 06:16:45;;;;;;;;;;;;;;;8.41;49.21;98640.72;4480173;32;35256;-91
2023/01/21 06:19:13;;;;;;;;;;;;;;;8.67;48.66;98638.41;4470278;32;34308;-92
2023/01/21 06:21:40;;;;;;;;;;;;;;;8.62;48.89;98629.75;4467543;32;34478;-93
2023/01/21 06:24:07;;;;;;;;;;;;;;;8.57;48.81;98636.59;4480075;32;35451;-94
2023/01/21 06:26:34;;;;;;;;;;;;;;;7.70;50.73;98656.84;4475941;32;35550;-93
2023/01/21 06:29:02;;;;;;;;;;;;;;;7.85;50.69;98657.94;4460300;32;33968;-93
2023/01/21 06:31:29;;;;;;;;;;;;;;;8.30;49.68;98657.75;4476601;32;34216;-93
2023/01/21 06:33:58;;;;;;;;;;;;;;;7.29;52.17;98669.91;4466873;32;32551;-94
2023/01/21 06:36:25;;;;;;;;;;;;;;;8.11;50.31;98676.41;4473900;32;33920;-93
2023/01/21 06:38:52;;;;;;;;;;;;;;;7.25;52.28;98667.25;4468084;32;34447;-91
2023/01/21 06:41:19;;;;;;;;;;;;;;;7.71;51.32;98676.66;4475704;32;33648;-92
2023/01/21 06:43:46;;;;;;;;;;;;;;;6.84;53.31;98680.22;4467470;32;34811;-93
2023/01/21 06:46:15;;;;;;;;;;;;;;;7.59;51.94;98675.59;4472021;32;35031;-89
2023/01/21 06:48:42;;;;;;;;;;;;;;;7.70;51.45;98674.91;4472132;32;34051;-91
2023/01/21 06:51:09;;;;;;;;;;;;;;;6.80;54.08;98679.31;4476747;31;33084;-93
2023/01/21 06:53:37;;;;;;;;;;;;;;;6.71;54.13;98676.56;4479159;31;34970;-92
2023/01/21 06:56:04;;;;;;;;;;;;;;;7.90;50.85;98679.53;4477469;32;33764;-90
2023/01/21 06:58:31;;;;;;;;;;;;;;;7.71;51.51;98679.22;4473815;32;34198;-92
2023/01/21 07:00:59;;;;;;;;;;;;;;;7.77;51.44;98676.75;4472815;32;33777;-93
2023/01/21 07:03:26;;;;;;;;;;;;;;;7.10;53.24;98683.31;4468985;32;34185;-91
2023/01/21 07:05:53;;;;;;;;;;;;;;;7.47;52.47;98676.25;4474092;32;34125;-93
2023/01/21 07:08:21;;;;;;;;;;;;;;;6.57;54.58;98690.84;4479512;32;34369;-87
2023/01/21 07:10:48;;;;;;;;;;;;;;;6.95;53.92;98686.47;4477419;32;33104;-92
2023/01/21 07:13:15;;;;;;;;;;;;;;;7.41;52.62;98687.31;4474036;31;34249;-89
2023/01/21 07:15:42;;;;;;;;;;;;;;;8.02;50.85;98695.19;4481977;32;34329;-92
2023/01/21 07:18:10;;;;;;;;;;;;;;;7.45;52.47;98703.72;4481996;32;34458;-91
2023/01/21 07:20:39;;;;;;;;;;;;;;;7.54;52.22;98707.34;4478670;32;33778;-92
2023/01/21 07:23:07;;;;;;;;;;;;;;;7.34;52.88;98718.13;4479382;32;34309;-89
2023/01/21 07:25:36;;;;;;;;;;;;;;;7.31;53.01;98736.97;4458260;32;32658;-90
2023/01/21 07:28:03;;;;;;;;;;;;;;;8.02;51.19;98734.78;4482041;32;34568;-92
2023/01/21 07:30:30;;;;;;;;;;;;;;;9.14;48.49;98732.91;4474146;32;33732;-85
2023/01/21 07:33:03;;;;;;;;;;;;;;;8.89;48.98;98747.25;4465954;32;33988;-89
2023/01/21 07:35:31;;;;;;;;;;;;;;;9.47;47.64;98742.72;4475277;32;34483;-88
2023/01/21 07:37:58;;;;;;;;;;;;;;;9.66;46.98;98744.69;4465119;32;34224;-91
2023/01/21 07:40:26;;;;;;;;;;;;;;;9.64;46.90;98748.94;4482321;32;33218;-92
2023/01/21 07:42:53;;;;;;;;;;;;;;;9.01;48.18;98752.56;4481964;32;34892;-89
2023/01/21 07:45:21;;;;;;;;;;;;;;;8.59;49.15;98756.31;4478357;32;34250;-92
2023/01/21 07:47:48;;;;;;;;;;;;;;;8.61;49.35;98753.78;4470325;32;34357;-89
2023/01/21 07:50:16;;;;;;;;;;;;;;;9.41;47.45;98753.03;4483049;32;33535;-91
2023/01/21 07:52:43;;;;;;;;;;;;;;;9.48;47.35;98752.25;4478010;32;34345;-90
2023/01/21 07:55:10;;;;;;;;;;;;;;;9.51;47.16;98760.06;4475199;32;34447;-82
2023/01/21 07:57:39;;;;;;;;;;;;;;;9.54;47.11;98759.19;4480480;32;34619;-92
2023/01/21 08:00:06;;;;;;;;;;;;;;;10.07;46.09;98762.28;4471906;32;34330;-90
2023/01/21 08:02:37;;;;;;;;;;;;;;;9.87;46.34;98763.84;4468574;32;34883;-88
2023/01/21 08:05:05;;;;;;;;;;;;;;;10.22;45.48;98772.75;4467603;32;34269;-92
2023/01/21 08:07:32;;;;;;;;;;;;;;;10.09;45.58;98765.75;4467033;32;33786;-86
2023/01/21 08:10:00;;;;;;;;;;;;;;;9.34;47.32;98769.34;4466763;32;34145;-79
2023/01/21 08:12:27;;;;;;;;;;;;;;;8.97;48.17;98776.66;4479009;32;34619;-89
2023/01/21 08:14:54;;;;;;;;;;;;;;;8.88;48.71;98777.41;4469868;32;35170;-91
2023/01/21 08:17:22;;;;;;;;;;;;;;;9.04;48.26;98778.47;4476195;32;35089;-90
2023/01/21 08:19:49;;;;;;;;;;;;;;;9.79;46.80;98770.66;4471976;32;35069;-92
2023/01/21 08:22:16;;;;;;;;;;;;;;;10.09;46.04;98776.13;4477755;32;33537;-86
2023/01/21 08:24:43;;;;;;;;;;;;;;;10.07;46.01;98774.34;4468940;32;33836;-90
2023/01/21 08:27:11;;;;;;;;;;;;;;;10.06;45.96;98770.03;4477095;32;34846;-91
2023/01/21 08:29:38;;;;;;;;;;;;;;;10.12;45.65;98770.09;4474387;32;33946;-88
2023/01/21 08:32:05;;;;;;;;;;;;;;;9.95;46.05;98773.41;4470994;32;33966;-91
2023/01/21 08:34:33;;;;;;;;;;;;;;;9.86;46.23;98775.91;4478931;32;34967;-90
2023/01/21 08:37:00;;;;;;;;;;;;;;;10.17;45.46;98784.81;4471761;32;34394;-91
2023/01/21 08:39:27;;;;;;;;;;;;;;;10.21;45.47;98785.72;4477001;32;35061;-89
2023/01/21 08:41:55;;;;;;;;;;;;;;;10.65;44.59;98792.97;4478116;32;34112;-85
2023/01/21 08:44:22;;;;;;;;;;;;;;;10.48;44.66;98796.31;4471582;32;34485;-87
2023/01/21 08:46:49;;;;;;;;;;;;;;;10.55;44.65;98791.19;4472504;32;33650;-88
2023/01/21 08:49:16;;;;;;;;;;;;;;;10.19;45.30;98788.31;4479877;32;33225;-86
2023/01/21 08:51:44;;;;;;;;;;;;;;;10.18;45.37;98793.44;4477106;32;33968;-88
2023/01/21 08:54:11;;;;;;;;;;;;;;;10.13;45.60;98793.41;4472562;32;34290;-84
2023/01/21 08:56:38;;;;;;;;;;;;;;;10.32;45.41;98796.19;4481518;31;34808;-91
2023/01/21 08:59:06;;;;;;;;;;;;;;;10.66;44.69;98790.38;4456368;32;33863;-93
2023/01/21 09:01:35;;;;;;;;;;;;;;;9.97;45.99;98791.56;4462308;32;33357;-92
2023/01/21 09:04:02;;;;;;;;;;;;;;;9.52;47.04;98808.34;4468572;32;35265;-91
2023/01/21 09:06:29;;;;;;;;;;;;;;;9.54;47.04;98804.06;4469727;32;34872;-92
2023/01/21 09:08:57;;;;;;;;;;;;;;;9.58;47.15;98808.41;4480983;32;33209;-93
2023/01/21 09:11:25;;;;;;;;;;;;;;;9.94;46.41;98801.88;4475876;32;34123;-94
2023/01/21 09:13:52;;;;;;;;;;;;;;;10.00;46.44;98801.94;4474708;32;35089;-90
2023/01/21 09:16:21;;;;;;;;;;;;;;;10.13;46.02;98803.78;4469631;32;34276;-93
2023/01/21 09:18:48;;;;;;;;;;;;;;;10.03;46.21;98801.09;4468757;32;33863;-94
2023/01/21 09:21:15;;;;;;;;;;;;;;;9.69;47.10;98806.81;4468915;32;33786;-91
2023/01/21 09:23:43;;;;;;;;;;;;;;;9.59;47.42;98805.00;4476966;32;34266;-93
2023/01/21 09:26:17;;;;;;;;;;;;;;;9.66;47.44;98801.62;4471936;32;34560;-91
2023/01/21 09:28:46;;;;;;;;;;;;;;;9.94;46.97;98807.94;4466387;32;33559;-90
2023/01/21 09:31:15;;;;;;;;;;;;;;;10.22;46.13;98806.44;4456849;32;34294;-80
2023/01/21 09:33:43;;;;;;;;;;;;;;;9.87;46.86;98806.13;4467885;32;34225;-89
2023/01/21 09:36:12;;;;;;;;;;;;;;;10.29;45.97;98803.94;4449892;32;34523;-86
2023/01/21 09:38:42;;;;;;;;;;;;;;;10.29;45.58;98803.94;4483615;32;34541;-92
2023/01/21 09:41:26;;;;;;;;;;;;;;;10.46;45.40;98810.13;4487177;32;33975;-95
2023/01/21 09:43:58;;;;;;;;;;;;;;;10.49;45.39;98812.72;4470842;32;34381;-94
2023/01/21 09:46:30;;;;;;;;;;;;;;;10.16;46.02;98814.16;4469890;32;35217;-93
2023/01/21 09:48:58;;;;;;;;;;;;;;;9.54;47.76;98805.78;4469596;32;34487;-95
2023/01/21 09:51:27;;;;;;;;;;;;;;;10.20;46.60;98802.97;4470889;32;33968;-94
2023/01/21 09:53:55;;;;;;;;;;;;;;;10.10;47.06;98802.88;4484329;32;34366;-94
2023/01/21 09:56:33;;;;;;;;;;;;;;;10.22;46.90;98810.75;4470274;32;34403;-95
2023/01/21 09:59:13;;;;;;;;;;;;;;;10.22;46.86;98811.63;4469642;32;33297;-94
2023/01/21 10:01:41;;;;;;;;;;;;;;;10.50;46.34;98811.03;4464443;32;33786;-92
2023/01/21 10:04:24;;;;;;;;;;;;;;;10.50;46.15;98811.87;4453388;32;34459;-94
2023/01/21 10:07:14;;;;;;;;;;;;;;;10.28;46.68;98813.44;4468006;32;34876;-94
2023/01/21 10:09:45;;;;;;;;;;;;;;;10.26;46.68;98807.38;4464705;32;33416;-94
2023/01/21 10:12:18;;;;;;;;;;;;;;;9.54;48.27;98813.53;4477539;32;35305;-94
2023/01/21 10:14:57;;;;;;;;;;;;;;;9.62;48.26;98815.38;4474434;32;34958;-94
2023/01/21 10:17:40;;;;;;;;;;;;;;;9.95;47.59;98816.56;4463259;32;34476;-90
2023/01/21 10:20:34;;;;;;;;;;;;;;;9.25;48.88;98819.25;4455728;32;33751;-92
2023/01/21 10:23:03;;;;;;;;;;;;;;;10.19;46.65;98814.22;4480450;32;33771;-92
2023/01/21 10:25:31;;;;;;;;;;;;;;;10.57;46.06;98821.44;4466962;32;34267;-84
2023/01/21 10:28:03;;;;;;;;;;;;;;;10.32;46.77;98822.09;4475357;32;34165;-89
2023/01/21 10:30:33;;;;;;;;;;;;;;;10.34;46.70;98822.97;4454090;32;34488;-91
2023/01/21 10:33:00;;;;;;;;;;;;;;;9.87;47.82;98825.97;4476279;32;35073;-90
2023/01/21 10:35:38;;;;;;;;;;;;;;;10.15;47.35;98821.91;4478411;32;34272;-90
2023/01/21 10:38:05;;;;;;;;;;;;;;;10.44;46.85;98827.37;4464131;32;34632;-89
2023/01/21 10:40:41;;;;;;;;;;;;;;;10.52;46.62;98817.94;4483673;32;33802;-85
2023/01/21 10:43:09;;;;;;;;;;;;;;;10.00;47.71;98820.06;4481740;32;34191;-88
2023/01/21 10:45:36;;;;;;;;;;;;;;;10.15;47.61;98820.22;4471927;32;34483;-91
2023/01/21 10:48:07;;;;;;;;;;;;;;;10.31;47.45;98834.19;4481976;32;34771;-92
2023/01/21 10:50:44;;;;;;;;;;;;;;;10.74;46.29;98826.72;4469203;32;33770;-91
2023/01/21 10:53:11;;;;;;;;;;;;;;;10.97;45.86;98832.06;4478770;32;34184;-91
2023/01/21 10:55:42;;;;;;;;;;;;;;;11.15;45.36;98826.97;4468223;32;34585;-89
2023/01/21 10:58:29;;;;;;;;;;;;;;;10.85;46.25;98819.03;4453933;32;34822;-93
2023/01/21 11:00:57;;;;;;;;;;;;;;;10.75;46.46;98823.28;4471006;32;32428;-93
2023/01/21 11:03:29;;;;;;;;;;;;;;;9.95;48.10;98827.78;4477038;32;35389;-91
2023/01/21 11:05:56;;;;;;;;;;;;;;;10.21;47.75;98828.03;4454242;32;33927;-92
2023/01/21 11:08:24;;;;;;;;;;;;;;;10.30;47.47;98814.31;4469208;32;34794;-89
2023/01/21 11:10:54;;;;;;;;;;;;;;;10.50;46.95;98819.66;4469184;32;33646;-83
2023/01/21 11:13:22;;;;;;;;;;;;;;;10.58;46.99;98822.31;4467186;32;34272;-81
2023/01/21 11:15:51;;;;;;;;;;;;;;;10.68;46.81;98824.09;4457743;32;34066;-88
2023/01/21 11:18:29;;;;;;;;;;;;;;;10.81;46.38;98814.69;4481525;32;35212;-88
2023/01/21 11:21:16;;;;;;;;;;;;;;;10.28;47.67;98818.63;4462312;32;34511;-91
2023/01/21 11:23:51;;;;;;;;;;;;;;;10.02;48.17;98826.13;4462266;32;34698;-87
2023/01/21 11:26:29;;;;;;;;;;;;;;;11.01;46.39;98819.97;4467420;32;35377;-83
2023/01/21 11:29:06;;;;;;;;;;;;;;;10.48;47.42;98808.41;4467493;32;35118;-83
2023/01/21 11:31:35;;;;;;;;;;;;;;;10.35;47.65;98815.22;4470509;32;33699;-90
2023/01/21 11:34:03;;;;;;;;;;;;;;;10.41;47.46;98809.22;4467002;32;34818;-92
2023/01/21 11:36:30;;;;;;;;;;;;;;;10.42;47.65;98810.97;4479865;32;34818;-92
2023/01/21 11:39:02;;;;;;;;;;;;;;;10.39;47.83;98810.94;4454206;32;35150;-90
2023/01/21 11:41:29;;;;;;;;;;;;;;;10.70;47.32;98805.09;4454498;32;33016;-92
2023/01/21 11:44:08;;;;;;;;;;;;;;;10.59;47.39;98801.56;4474402;32;34199;-88
2023/01/21 11:46:39;;;;;;;;;;;;;;;10.47;47.82;98809.28;4469356;32;33948;-91
2023/01/21 11:49:06;;;;;;;;;;;;;;;9.90;48.88;98800.97;4484055;32;34181;-90
2023/01/21 11:51:34;;;;;;;;;;;;;;;8.45;52.67;98814.69;4484743;32;33320;-88
2023/01/21 11:54:06;;;;;;;;;;;;;;;9.90;49.16;98810.47;4484122;32;33614;-91
2023/01/21 11:56:33;;;;;;;;;;;;;;;9.58;50.28;98797.19;4468751;32;34160;-88
2023/01/21 11:59:01;;;;;;;;;;;;;;;8.95;51.55;98806.78;4468758;32;34085;-91
2023/01/21 12:01:30;;;;;;;;;;;;;;;8.92;51.45;98811.91;4464958;32;33222;-87
2023/01/21 12:04:01;;;;;;;;;;;;;;;9.50;50.11;98810.91;4450502;32;33948;-87
2023/01/21 12:06:32;;;;;;;;;;;;;;;9.81;49.36;98810.38;4452076;32;33940;-84
2023/01/21 12:09:04;;;;;;;;;;;;;;;8.93;51.72;98819.69;4451736;32;34592;-85
2023/01/21 12:11:31;;;;;;;;;;;;;;;9.68;49.97;98815.44;4463038;32;34215;-93
2023/01/21 12:14:02;;;;;;;;;;;;;;;9.45;50.44;98822.06;4468971;32;33658;-84
2023/01/21 12:16:31;;;;;;;;;;;;;;;9.07;50.87;98812.13;4468936;32;35307;-93
2023/01/21 12:19:18;;;;;;;;;;;;;;;9.51;50.30;98814.41;4467435;32;34434;-91
2023/01/21 12:22:07;;;;;;;;;;;;;;;9.84;49.62;98815.59;4468738;32;33625;-92
2023/01/21 12:24:53;;;;;;;;;;;;;;;9.86;49.72;98819.06;4467220;32;34134;-84
2023/01/21 12:27:28;;;;;;;;;;;;;;;9.49;50.32;98829.00;4468233;32;35003;-83
2023/01/21 12:30:14;;;;;;;;;;;;;;;9.79;49.79;98830.22;4463144;32;35137;-90
2023/01/21 12:32:43;;;;;;;;;;;;;;;10.27;48.68;98832.44;4468166;32;33834;-93
2023/01/21 12:35:12;;;;;;;;;;;;;;;9.34;50.38;98834.00;4467924;32;35008;-90
2023/01/21 12:37:45;;;;;;;;;;;;;;;9.10;51.04;98838.03;4468562;32;34672;-92
2023/01/21 12:40:14;;;;;;;;;;;;;;;8.65;52.16;98844.28;4458712;32;34438;-91
2023/01/21 12:42:43;;;;;;;;;;;;;;;8.84;51.13;98840.25;4461852;32;33491;-87
2023/01/21 12:45:15;;;;;;;;;;;;;;;8.52;52.43;98855.25;4462425;32;34159;-91
2023/01/21 12:47:52;;;;;;;;;;;;;;;8.80;51.54;98850.53;4453193;32;34289;-90
2023/01/21 12:50:25;;;;;;;;;;;;;;;9.42;50.07;98851.34;4453711;32;35809;-93
2023/01/21 12:52:53;;;;;;;;;;;;;;;8.37;53.40;98853.31;4453849;32;33716;-90
2023/01/21 12:55:25;;;;;;;;;;;;;;;9.24;50.49;98857.19;4449246;32;34607;-88
2023/01/21 12:57:53;;;;;;;;;;;;;;;8.91;52.19;98854.12;4449302;32;35140;-91
2023/01/21 13:00:24;;;;;;;;;;;;;;;9.72;50.16;98847.41;4464800;32;34874;-91
2023/01/21 13:02:55;;;;;;;;;;;;;;;10.15;48.65;98847.81;4467387;32;33780;-92
2023/01/21 13:05:25;;;;;;;;;;;;;;;9.55;50.54;98859.28;4463308;32;34252;-94
2023/01/21 13:08:16;;;;;;;;;;;;;;;9.70;50.23;98862.06;4481430;32;34773;-84
2023/01/21 13:10:45;;;;;;;;;;;;;;;9.34;50.99;98865.91;4473033;32;34975;-91
2023/01/21 13:13:28;;;;;;;;;;;;;;;8.57;53.17;98860.50;4455467;32;33398;-92